Time;durP1;ratioP1;P1;durP2;ratioP2;P2;SDS_P1;SDS_P2;PMS_P1;PMS_P2;Temp;Humidity;BMP_temperature;BMP_pressure;BME280_temperature;BME280_humidity;BME280_pressure;Samples;Min_cycle;Max_cycle;Signal;HPM_P1;HPM_P2
2022/08/28 00:02:13;;;;;;;;;;;19.60;99.20;;;;;;5052215;28;19913;-75
2022/08/28 00:04:38;;;;;;;;;;;19.70;99.10;;;;;;5053091;28;19909;-75
2022/08/28 00:07:04;;;;;;;;;;;19.60;99.00;;;;;;5053180;28;19916;-86
2022/08/28 00:09:30;;;;;;;;;;;19.60;99.00;;;;;;5057852;28;20007;-84
2022/08/28 00:11:56;;;;;;;;;;;19.60;99.10;;;;;;5055826;28;19951;-75
2022/08/28 00:14:22;;;;;;;;;;;19.60;99.20;;;;;;5052709;28;19909;-87
2022/08/28 00:16:48;;;;;;;;;;;19.60;99.20;;;;;;5052479;28;19913;-85
2022/08/28 00:19:14;;;;;;;;;;;19.50;99.20;;;;;;5052541;28;19916;-86
2022/08/28 00:21:40;;;;;;;;;;;19.40;99.20;;;;;;5058099;28;19915;-86
2022/08/28 00:24:06;;;;;;;;;;;19.40;99.30;;;;;;5052407;28;19916;-86
2022/08/28 00:29:16;;;;;;;;;;;19.30;99.40;;;;;;5050826;28;19967;-86
2022/08/28 00:31:41;;;;;;;;;;;19.30;99.40;;;;;;5056627;28;19925;-75
2022/08/28 00:34:07;;;;;;;;;;;19.30;99.40;;;;;;5056694;28;19962;-86
2022/08/28 00:36:33;;;;;;;;;;;19.30;99.50;;;;;;5056905;28;20326;-75
2022/08/28 00:38:59;;;;;;;;;;;19.30;99.50;;;;;;5056600;28;19916;-76
2022/08/28 00:41:25;;;;;;;;;;;19.30;99.60;;;;;;5056420;28;19916;-76
2022/08/28 00:44:03;;;;;;;;;;;19.30;99.60;;;;;;5056425;28;19908;-86
2022/08/28 00:46:29;;;;;;;;;;;19.30;99.60;;;;;;5055012;28;19908;-75
2022/08/28 00:48:54;;;;;;;;;;;19.30;99.60;;;;;;5053501;28;19916;-75
2022/08/28 00:54:05;;;;;;;;;;;19.20;99.60;;;;;;5056195;28;20001;-86
2022/08/28 00:56:31;;;;;;;;;;;19.20;99.80;;;;;;5057554;28;20055;-86
2022/08/28 00:58:59;;;;;;;;;;;19.10;99.80;;;;;;5055882;28;20351;-86
2022/08/28 01:01:24;;;;;;;;;;;19.10;99.90;;;;;;5060462;28;19908;-75
2022/08/28 01:03:50;;;;;;;;;;;19.10;99.90;;;;;;5055321;28;19971;-85
2022/08/28 01:06:15;;;;;;;;;;;19.10;99.90;;;;;;5056398;28;19912;-85
2022/08/28 01:08:43;;;;;;;;;;;19.10;99.90;;;;;;5060218;28;19908;-86
2022/08/28 01:11:11;;;;;;;;;;;19.10;99.90;;;;;;5051691;28;19908;-75
2022/08/28 01:13:37;;;;;;;;;;;19.10;99.90;;;;;;5055549;28;19920;-85
2022/08/28 01:16:04;;;;;;;;;;;19.10;99.90;;;;;;5054667;28;19913;-87
2022/08/28 01:18:31;;;;;;;;;;;19.00;99.90;;;;;;5054856;28;19917;-76
2022/08/28 01:21:13;;;;;;;;;;;19.00;99.90;;;;;;5060383;28;19909;-86
2022/08/28 01:23:57;;;;;;;;;;;19.00;99.90;;;;;;5055426;28;19991;-75
2022/08/28 01:26:23;;;;;;;;;;;19.00;99.90;;;;;;5055678;28;19974;-75
2022/08/28 01:28:50;;;;;;;;;;;19.00;99.90;;;;;;5063831;28;19967;-86
2022/08/28 01:31:16;;;;;;;;;;;18.90;99.90;;;;;;5055663;28;19932;-75
2022/08/28 01:33:42;;;;;;;;;;;18.90;99.90;;;;;;5055484;28;19916;-86
2022/08/28 01:36:10;;;;;;;;;;;18.90;99.90;;;;;;5055245;28;19908;-75
2022/08/28 01:38:37;;;;;;;;;;;18.80;99.90;;;;;;5054101;28;19920;-75
2022/08/28 01:41:02;;;;;;;;;;;18.80;99.90;;;;;;5055233;28;19909;-86
2022/08/28 01:43:30;;;;;;;;;;;18.80;99.90;;;;;;5055218;28;19916;-83
2022/08/28 01:45:59;;;;;;;;;;;18.80;99.90;;;;;;5055484;28;20089;-86
2022/08/28 01:48:25;;;;;;;;;;;18.80;99.90;;;;;;5052543;28;19916;-75
2022/08/28 01:50:51;;;;;;;;;;;18.80;99.90;;;;;;5063208;28;19909;-86
2022/08/28 01:53:18;;;;;;;;;;;18.70;99.90;;;;;;5055701;28;20364;-86
2022/08/28 01:55:43;;;;;;;;;;;18.70;99.90;;;;;;5056346;28;19909;-75
2022/08/28 01:58:10;;;;;;;;;;;18.70;99.90;;;;;;5055072;28;20334;-86
2022/08/28 02:00:36;;;;;;;;;;;18.60;99.90;;;;;;5054661;28;19913;-86
2022/08/28 02:03:01;;;;;;;;;;;18.60;99.90;;;;;;5055085;28;20443;-86
2022/08/28 02:05:29;;;;;;;;;;;18.60;99.90;;;;;;5053525;28;20379;-86
2022/08/28 02:07:56;;;;;;;;;;;18.60;99.90;;;;;;5055456;28;19935;-86
2022/08/28 02:10:23;;;;;;;;;;;18.60;99.90;;;;;;5059532;28;19944;-86
2022/08/28 02:12:49;;;;;;;;;;;18.50;99.90;;;;;;5054714;28;19912;-86
2022/08/28 02:15:15;;;;;;;;;;;18.50;99.90;;;;;;5054627;28;19912;-86
2022/08/28 02:17:40;;;;;;;;;;;18.50;99.90;;;;;;5054855;28;20011;-75
2022/08/28 02:20:06;;;;;;;;;;;18.50;99.90;;;;;;5057971;28;20336;-75
2022/08/28 02:22:32;;;;;;;;;;;18.50;99.90;;;;;;5051538;28;19917;-85
2022/08/28 02:24:57;;;;;;;;;;;18.50;99.90;;;;;;5052744;28;20038;-75
2022/08/28 02:27:23;;;;;;;;;;;18.40;99.90;;;;;;5061096;28;20050;-75
2022/08/28 02:29:48;;;;;;;;;;;18.50;99.90;;;;;;5056113;28;19916;-75
2022/08/28 02:32:14;;;;;;;;;;;18.40;99.90;;;;;;5053567;28;20364;-86
2022/08/28 02:34:42;;;;;;;;;;;18.40;99.90;;;;;;5054517;28;19915;-86
2022/08/28 02:37:10;;;;;;;;;;;18.40;99.90;;;;;;5054431;28;19913;-86
2022/08/28 02:39:36;;;;;;;;;;;18.40;99.90;;;;;;5054251;28;20483;-86
2022/08/28 02:42:01;;;;;;;;;;;18.40;99.90;;;;;;5052553;28;19913;-75
2022/08/28 02:44:27;;;;;;;;;;;18.40;99.90;;;;;;5052649;28;19920;-85
2022/08/28 02:46:52;;;;;;;;;;;18.40;99.90;;;;;;5049662;28;20015;-86
2022/08/28 02:49:18;;;;;;;;;;;18.30;99.90;;;;;;5056844;28;20299;-75
2022/08/28 02:51:44;;;;;;;;;;;18.40;99.90;;;;;;5061856;28;19908;-86
2022/08/28 02:54:09;;;;;;;;;;;18.40;99.90;;;;;;5053805;28;19970;-75
2022/08/28 02:56:35;;;;;;;;;;;18.40;99.90;;;;;;5047783;28;20371;-75
2022/08/28 02:59:00;;;;;;;;;;;18.40;99.90;;;;;;5053517;28;19909;-86
2022/08/28 03:01:26;;;;;;;;;;;18.40;99.90;;;;;;5053922;28;20303;-86
2022/08/28 03:03:51;;;;;;;;;;;18.40;99.90;;;;;;5054041;28;19915;-86
2022/08/28 03:06:17;;;;;;;;;;;18.30;99.90;;;;;;5053386;28;19909;-75
2022/08/28 03:08:42;;;;;;;;;;;18.30;99.90;;;;;;5053847;28;19913;-75
2022/08/28 03:11:08;;;;;;;;;;;18.20;99.90;;;;;;5055821;28;19909;-86
2022/08/28 03:13:34;;;;;;;;;;;18.20;99.90;;;;;;5053120;28;19909;-86
2022/08/28 03:15:59;;;;;;;;;;;18.10;99.90;;;;;;5053819;28;20253;-86
2022/08/28 03:18:27;;;;;;;;;;;18.10;99.90;;;;;;5053690;28;19924;-75
2022/08/28 03:20:54;;;;;;;;;;;18.10;99.90;;;;;;5053457;28;19988;-86
2022/08/28 03:23:25;;;;;;;;;;;18.00;99.90;;;;;;5053144;28;19954;-86
2022/08/28 03:25:52;;;;;;;;;;;18.00;99.90;;;;;;5053595;28;19909;-86
2022/08/28 03:28:17;;;;;;;;;;;18.00;99.90;;;;;;5062075;28;19908;-86
2022/08/28 03:30:43;;;;;;;;;;;18.00;99.90;;;;;;5053068;28;19971;-86
2022/08/28 03:33:08;;;;;;;;;;;17.90;99.90;;;;;;5053517;28;19935;-75
2022/08/28 03:35:36;;;;;;;;;;;17.90;99.90;;;;;;5051777;28;19908;-75
2022/08/28 03:38:01;;;;;;;;;;;18.00;99.90;;;;;;5053349;28;19917;-86
2022/08/28 03:40:27;;;;;;;;;;;17.90;99.90;;;;;;5053526;28;19916;-75
2022/08/28 03:42:53;;;;;;;;;;;17.90;99.90;;;;;;5053229;28;19931;-86
2022/08/28 03:45:18;;;;;;;;;;;17.90;99.90;;;;;;5052988;28;20367;-86
2022/08/28 03:47:44;;;;;;;;;;;17.80;99.90;;;;;;5046638;28;19908;-75
2022/08/28 03:50:10;;;;;;;;;;;17.80;99.90;;;;;;5059528;28;19920;-86
2022/08/28 03:52:36;;;;;;;;;;;17.80;99.90;;;;;;5054511;28;19913;-75
2022/08/28 03:55:02;;;;;;;;;;;17.80;99.90;;;;;;5053574;28;20050;-85
2022/08/28 03:57:28;;;;;;;;;;;17.80;99.90;;;;;;5053017;28;19999;-86
2022/08/28 03:59:54;;;;;;;;;;;17.80;99.90;;;;;;5051424;28;20008;-86
2022/08/28 04:02:20;;;;;;;;;;;17.80;99.90;;;;;;5052405;28;19955;-86
2022/08/28 04:04:46;;;;;;;;;;;17.80;99.90;;;;;;5053017;28;19909;-86
2022/08/28 04:07:11;;;;;;;;;;;17.80;99.90;;;;;;5052594;28;19959;-85
2022/08/28 04:09:37;;;;;;;;;;;17.80;99.90;;;;;;5053057;28;19913;-85
2022/08/28 04:12:03;;;;;;;;;;;17.80;99.90;;;;;;5055043;28;20292;-75
2022/08/28 04:14:28;;;;;;;;;;;17.70;99.90;;;;;;5052831;28;19909;-86
2022/08/28 04:16:54;;;;;;;;;;;17.70;99.90;;;;;;5052026;28;19920;-85
2022/08/28 04:19:20;;;;;;;;;;;17.60;99.90;;;;;;5052891;28;20291;-86
2022/08/28 04:21:46;;;;;;;;;;;17.60;99.90;;;;;;5052944;28;19952;-86
2022/08/28 04:24:12;;;;;;;;;;;17.60;99.90;;;;;;5052604;28;19963;-75
2022/08/28 04:26:37;;;;;;;;;;;17.60;99.90;;;;;;5052119;28;20406;-74
2022/08/28 04:29:03;;;;;;;;;;;17.50;99.90;;;;;;5061516;28;19920;-86
2022/08/28 04:31:29;;;;;;;;;;;17.60;99.90;;;;;;5052573;28;19974;-85
2022/08/28 04:33:54;;;;;;;;;;;17.50;99.90;;;;;;5053038;28;19916;-86
2022/08/28 04:36:20;;;;;;;;;;;17.50;99.90;;;;;;5052554;28;20290;-84
2022/08/28 04:38:46;;;;;;;;;;;17.50;99.90;;;;;;5052718;28;20330;-75
2022/08/28 04:41:13;;;;;;;;;;;17.50;99.90;;;;;;5052607;28;19909;-75
2022/08/28 04:43:38;;;;;;;;;;;17.50;99.90;;;;;;5052700;28;19912;-86
2022/08/28 04:46:05;;;;;;;;;;;17.40;99.90;;;;;;5052694;28;19909;-85
2022/08/28 04:48:31;;;;;;;;;;;17.40;99.90;;;;;;5046056;28;19919;-85
2022/08/28 04:50:57;;;;;;;;;;;17.40;99.90;;;;;;5060957;28;20339;-74
2022/08/28 04:53:23;;;;;;;;;;;17.40;99.90;;;;;;5052886;28;20387;-74
2022/08/28 04:55:50;;;;;;;;;;;17.50;99.90;;;;;;5053942;28;20361;-86
2022/08/28 04:58:16;;;;;;;;;;;17.50;99.90;;;;;;5052396;28;19913;-86
2022/08/28 05:00:44;;;;;;;;;;;17.50;99.90;;;;;;5052200;28;20300;-85
2022/08/28 05:03:12;;;;;;;;;;;17.50;99.90;;;;;;5056752;28;19916;-75
2022/08/28 05:05:43;;;;;;;;;;;17.50;99.90;;;;;;5052375;28;20294;-74
2022/08/28 05:08:09;;;;;;;;;;;17.50;99.90;;;;;;5051739;28;20383;-86
2022/08/28 05:10:35;;;;;;;;;;;17.50;99.90;;;;;;5057326;28;19908;-86
2022/08/28 05:13:00;;;;;;;;;;;17.50;99.90;;;;;;5052679;28;20269;-86
2022/08/28 05:15:26;;;;;;;;;;;17.50;99.90;;;;;;5055717;28;20358;-86
2022/08/28 05:17:52;;;;;;;;;;;17.50;99.90;;;;;;5055865;28;19919;-85
2022/08/28 05:20:17;;;;;;;;;;;17.50;99.90;;;;;;5058885;28;20384;-85
2022/08/28 05:22:43;;;;;;;;;;;17.50;99.90;;;;;;5051111;28;19960;-86
2022/08/28 05:25:08;;;;;;;;;;;17.40;99.90;;;;;;5055410;28;20371;-86
2022/08/28 05:27:34;;;;;;;;;;;17.40;99.90;;;;;;5062332;28;20401;-86
2022/08/28 05:29:59;;;;;;;;;;;17.40;99.90;;;;;;5056387;28;19927;-74
2022/08/28 05:32:25;;;;;;;;;;;17.50;99.90;;;;;;5055579;28;19913;-75
2022/08/28 05:34:52;;;;;;;;;;;17.50;99.90;;;;;;5055573;28;20334;-86
2022/08/28 05:37:18;;;;;;;;;;;17.50;99.90;;;;;;5049158;28;19917;-85
2022/08/28 05:39:43;;;;;;;;;;;17.50;99.90;;;;;;5055542;28;19962;-86
2022/08/28 05:42:09;;;;;;;;;;;17.50;99.90;;;;;;5055434;28;19908;-76
2022/08/28 05:44:34;;;;;;;;;;;17.50;99.90;;;;;;5055141;28;19948;-75
2022/08/28 05:47:00;;;;;;;;;;;17.60;99.90;;;;;;5049854;28;19944;-86
2022/08/28 05:49:26;;;;;;;;;;;17.60;99.90;;;;;;5054485;28;20354;-85
2022/08/28 05:51:52;;;;;;;;;;;17.70;99.90;;;;;;5055351;28;19934;-86
2022/08/28 05:54:18;;;;;;;;;;;17.70;99.90;;;;;;5055326;28;19996;-75
2022/08/28 05:56:44;;;;;;;;;;;17.70;99.90;;;;;;5056560;28;19912;-75
2022/08/28 05:59:10;;;;;;;;;;;17.80;99.90;;;;;;5054730;28;20324;-85
2022/08/28 06:01:43;;;;;;;;;;;17.80;99.90;;;;;;5055070;28;20288;-86
2022/08/28 06:04:11;;;;;;;;;;;17.80;99.90;;;;;;5055388;28;20314;-76
2022/08/28 06:06:38;;;;;;;;;;;17.80;99.90;;;;;;5054339;28;19921;-75
2022/08/28 06:09:05;;;;;;;;;;;17.90;99.90;;;;;;5059514;28;19915;-75
2022/08/28 06:11:31;;;;;;;;;;;17.90;99.90;;;;;;5056734;28;19909;-85
2022/08/28 06:14:00;;;;;;;;;;;18.00;99.90;;;;;;5054604;28;19920;-86
2022/08/28 06:16:26;;;;;;;;;;;18.00;99.90;;;;;;5054737;28;20342;-85
2022/08/28 06:18:52;;;;;;;;;;;18.20;99.90;;;;;;5054542;28;19913;-75
2022/08/28 06:21:17;;;;;;;;;;;18.30;99.90;;;;;;5059612;28;20359;-75
2022/08/28 06:23:43;;;;;;;;;;;18.30;99.90;;;;;;5049640;28;19908;-75
2022/08/28 06:26:09;;;;;;;;;;;18.40;99.90;;;;;;5054244;28;19992;-85
2022/08/28 06:28:34;;;;;;;;;;;18.50;99.90;;;;;;5063148;28;19981;-86
2022/08/28 06:31:01;;;;;;;;;;;18.60;99.90;;;;;;5053055;28;20392;-86
2022/08/28 06:33:27;;;;;;;;;;;18.70;99.90;;;;;;5054863;28;19908;-75
2022/08/28 06:35:53;;;;;;;;;;;18.80;99.90;;;;;;5054410;28;19932;-75
2022/08/28 06:38:21;;;;;;;;;;;18.90;99.90;;;;;;5054438;28;19921;-75
2022/08/28 06:40:47;;;;;;;;;;;19.00;99.90;;;;;;5054429;28;20410;-86
2022/08/28 06:43:16;;;;;;;;;;;19.20;99.80;;;;;;5053840;28;20153;-87
2022/08/28 06:45:43;;;;;;;;;;;19.30;99.70;;;;;;5054038;28;20000;-87
2022/08/28 06:48:09;;;;;;;;;;;19.40;99.60;;;;;;5052536;28;20463;-75
2022/08/28 06:50:41;;;;;;;;;;;19.50;99.40;;;;;;5062294;28;19908;-86
2022/08/28 06:53:08;;;;;;;;;;;19.60;99.30;;;;;;5054147;28;20391;-74
2022/08/28 06:55:34;;;;;;;;;;;19.70;99.10;;;;;;5055787;28;19909;-86
2022/08/28 06:57:59;;;;;;;;;;;19.80;99.00;;;;;;5053779;28;19912;-75
2022/08/28 07:00:25;;;;;;;;;;;19.90;98.80;;;;;;5053732;28;19917;-86
2022/08/28 07:02:50;;;;;;;;;;;20.00;98.80;;;;;;5053899;28;20386;-75
2022/08/28 07:05:16;;;;;;;;;;;20.10;98.70;;;;;;5053943;28;19955;-75
2022/08/28 07:07:41;;;;;;;;;;;20.20;98.50;;;;;;5053157;28;19912;-87
2022/08/28 07:10:07;;;;;;;;;;;20.30;98.40;;;;;;5054023;28;20265;-75
2022/08/28 07:12:33;;;;;;;;;;;20.40;98.30;;;;;;5056740;28;19909;-86
2022/08/28 07:14:58;;;;;;;;;;;20.60;98.20;;;;;;5052824;28;19915;-75
2022/08/28 07:17:24;;;;;;;;;;;20.70;98.00;;;;;;5053688;28;20402;-86
2022/08/28 07:19:50;;;;;;;;;;;20.80;97.70;;;;;;5053139;28;19970;-86
2022/08/28 07:22:15;;;;;;;;;;;20.90;97.80;;;;;;5053453;28;19909;-86
2022/08/28 07:24:41;;;;;;;;;;;21.00;97.60;;;;;;5053451;28;19970;-87
2022/08/28 07:27:07;;;;;;;;;;;21.10;97.60;;;;;;5057679;28;19947;-86
2022/08/28 07:29:33;;;;;;;;;;;21.20;97.50;;;;;;5058555;28;19913;-75
2022/08/28 07:31:58;;;;;;;;;;;21.40;97.20;;;;;;5054283;28;19963;-87
2022/08/28 07:34:24;;;;;;;;;;;21.50;96.90;;;;;;5058964;28;19909;-87
2022/08/28 07:36:52;;;;;;;;;;;21.60;96.60;;;;;;5052755;28;19917;-76
2022/08/28 07:39:18;;;;;;;;;;;21.70;96.60;;;;;;5053374;28;19909;-76
2022/08/28 07:41:45;;;;;;;;;;;21.90;96.50;;;;;;5053405;28;20268;-87
2022/08/28 07:46:56;;;;;;;;;;;22.20;96.10;;;;;;5048338;28;20170;-87
2022/08/28 07:49:23;;;;;;;;;;;22.40;95.90;;;;;;5052621;28;19909;-85
2022/08/28 07:51:48;;;;;;;;;;;22.50;95.70;;;;;;5061391;28;19995;-87
2022/08/28 07:54:14;;;;;;;;;;;22.70;95.50;;;;;;5053121;28;19948;-75
2022/08/28 07:56:40;;;;;;;;;;;23.00;95.30;;;;;;5054258;28;19955;-87
2022/08/28 07:59:06;;;;;;;;;;;23.20;95.00;;;;;;5051316;28;19913;-87
2022/08/28 08:01:34;;;;;;;;;;;23.40;94.70;;;;;;5053189;28;19931;-87
2022/08/28 08:04:00;;;;;;;;;;;24.00;94.30;;;;;;5053096;28;19915;-87
2022/08/28 08:06:27;;;;;;;;;;;26.10;92.60;;;;;;5053342;28;19916;-76
2022/08/28 08:08:53;;;;;;;;;;;28.60;90.50;;;;;;5056459;28;19908;-88
2022/08/28 08:11:19;;;;;;;;;;;30.20;87.40;;;;;;5054764;28;19941;-85
2022/08/28 08:13:46;;;;;;;;;;;31.10;85.40;;;;;;5052512;28;20019;-86
2022/08/28 08:16:13;;;;;;;;;;;32.40;83.70;;;;;;5053029;28;20265;-86
2022/08/28 08:18:40;;;;;;;;;;;32.80;82.70;;;;;;5052714;28;19967;-73
2022/08/28 08:21:06;;;;;;;;;;;32.70;82.00;;;;;;5057735;28;19908;-74
2022/08/28 08:23:37;;;;;;;;;;;33.70;80.90;;;;;;5052396;28;19948;-85
2022/08/28 08:26:05;;;;;;;;;;;34.20;80.10;;;;;;5052761;28;19909;-86
2022/08/28 08:28:32;;;;;;;;;;;33.80;79.80;;;;;;5061264;28;19909;-85
2022/08/28 08:31:02;;;;;;;;;;;34.20;79.80;;;;;;5052680;28;19929;-85
2022/08/28 08:33:27;;;;;;;;;;;34.10;79.50;;;;;;5052895;28;20368;-85
2022/08/28 08:35:54;;;;;;;;;;;34.20;79.00;;;;;;5052568;28;19915;-85
2022/08/28 08:38:20;;;;;;;;;;;34.30;79.20;;;;;;5052764;28;20007;-86
2022/08/28 08:40:45;;;;;;;;;;;34.80;78.20;;;;;;5052671;28;20042;-74
2022/08/28 08:43:13;;;;;;;;;;;35.80;77.50;;;;;;5052637;28;19909;-86
2022/08/28 08:45:40;;;;;;;;;;;35.40;77.30;;;;;;5052398;28;20410;-74
2022/08/28 08:48:10;;;;;;;;;;;35.30;77.50;;;;;;5047132;28;19909;-73
2022/08/28 08:50:35;;;;;;;;;;;35.30;77.40;;;;;;5064586;28;19909;-85
2022/08/28 08:53:19;;;;;;;;;;;34.80;77.60;;;;;;5056495;28;19919;-86
2022/08/28 08:55:48;;;;;;;;;;;34.80;77.60;;;;;;5057942;28;19909;-74
2022/08/28 08:58:17;;;;;;;;;;;35.60;76.80;;;;;;5056230;28;19913;-74
2022/08/28 09:00:51;;;;;;;;;;;35.30;76.60;;;;;;5055881;28;20357;-74
2022/08/28 09:03:22;;;;;;;;;;;36.20;76.50;;;;;;5056391;28;19920;-85
2022/08/28 09:05:52;;;;;;;;;;;35.90;75.70;;;;;;5056145;28;19959;-86
2022/08/28 09:08:26;;;;;;;;;;;36.20;75.40;;;;;;5056881;28;20291;-84
2022/08/28 09:11:03;;;;;;;;;;;36.40;75.30;;;;;;5057201;28;19931;-74
2022/08/28 09:13:37;;;;;;;;;;;36.60;75.40;;;;;;5055777;28;19909;-74
2022/08/28 09:16:04;;;;;;;;;;;36.50;75.10;;;;;;5056413;28;19916;-85
2022/08/28 09:18:33;;;;;;;;;;;36.40;74.90;;;;;;5054433;28;20322;-85
2022/08/28 09:20:59;;;;;;;;;;;36.40;74.50;;;;;;5056288;28;20322;-86
2022/08/28 09:23:26;;;;;;;;;;;36.80;74.40;;;;;;5049961;28;19908;-75
2022/08/28 09:25:51;;;;;;;;;;;37.10;74.50;;;;;;5056034;28;19912;-85
2022/08/28 09:28:19;;;;;;;;;;;37.20;74.30;;;;;;5064700;28;19939;-75
2022/08/28 09:30:51;;;;;;;;;;;37.80;73.80;;;;;;5055322;28;20019;-83
2022/08/28 09:33:26;;;;;;;;;;;37.40;73.80;;;;;;5055708;28;19913;-72
2022/08/28 09:35:51;;;;;;;;;;;37.20;73.40;;;;;;5055544;28;19909;-82
2022/08/28 09:38:19;;;;;;;;;;;38.00;73.10;;;;;;5055270;28;19959;-73
2022/08/28 09:43:30;;;;;;;;;;;37.90;72.50;;;;;;5054565;28;20423;-72
2022/08/28 09:45:58;;;;;;;;;;;37.80;72.90;;;;;;5055500;28;19936;-83
2022/08/28 09:48:29;;;;;;;;;;;37.40;72.90;;;;;;5049596;28;19944;-82
2022/08/28 09:51:02;;;;;;;;;;;36.90;72.90;;;;;;5055338;28;20004;-72
2022/08/28 09:53:29;;;;;;;;;;;36.50;73.60;;;;;;5055417;28;19996;-82
2022/08/28 09:56:04;;;;;;;;;;;37.00;73.20;;;;;;5056279;28;19909;-81
2022/08/28 09:58:32;;;;;;;;;;;36.70;72.70;;;;;;5054817;28;19920;-78
2022/08/28 10:01:03;;;;;;;;;;;36.80;72.70;;;;;;5054016;28;19944;-82
2022/08/28 10:03:48;;;;;;;;;;;36.90;73.10;;;;;;5055051;28;19909;-72
2022/08/28 10:06:18;;;;;;;;;;;36.60;73.00;;;;;;5043905;28;19909;-72
2022/08/28 10:08:46;;;;;;;;;;;36.40;73.40;;;;;;5057722;28;20307;-71
2022/08/28 10:11:21;;;;;;;;;;;35.40;73.20;;;;;;5058886;28;19994;-83
2022/08/28 10:14:02;;;;;;;;;;;35.90;73.80;;;;;;5054605;28;19912;-82
2022/08/28 10:16:30;;;;;;;;;;;36.30;73.30;;;;;;5054747;28;19908;-81
2022/08/28 10:19:08;;;;;;;;;;;37.00;72.90;;;;;;5053683;28;19909;-72
2022/08/28 10:21:36;;;;;;;;;;;37.30;72.00;;;;;;5060396;28;19916;-72
2022/08/28 10:24:07;;;;;;;;;;;36.50;72.30;;;;;;5054215;28;19912;-83
2022/08/28 10:26:48;;;;;;;;;;;36.20;73.20;;;;;;5054671;28;20000;-82
2022/08/28 10:29:16;;;;;;;;;;;36.40;73.10;;;;;;5047050;28;19920;-72
2022/08/28 10:31:47;;;;;;;;;;;36.20;73.30;;;;;;5054339;28;20379;-72
2022/08/28 10:34:22;;;;;;;;;;;35.00;73.70;;;;;;5053277;28;19934;-72
2022/08/28 10:36:55;;;;;;;;;;;34.50;73.90;;;;;;5052721;28;19913;-85
2022/08/28 10:39:39;;;;;;;;;;;34.30;74.40;;;;;;5054415;28;19947;-85
2022/08/28 10:42:05;;;;;;;;;;;33.70;74.40;;;;;;5054448;28;19909;-84
2022/08/28 10:44:37;;;;;;;;;;;34.00;75.20;;;;;;5054070;28;19912;-75
2022/08/28 10:47:04;;;;;;;;;;;33.90;74.70;;;;;;5048317;28;19947;-74
2022/08/28 10:49:40;;;;;;;;;;;34.10;74.70;;;;;;5059442;28;19909;-84
2022/08/28 10:52:08;;;;;;;;;;;34.10;74.10;;;;;;5054251;28;20379;-74
2022/08/28 10:54:34;;;;;;;;;;;33.90;74.40;;;;;;5054209;28;19909;-74
2022/08/28 10:57:18;;;;;;;;;;;33.30;75.20;;;;;;5055441;28;19935;-74
2022/08/28 10:59:45;;;;;;;;;;;32.80;75.50;;;;;;5053642;28;19908;-85
2022/08/28 11:02:12;;;;;;;;;;;32.50;76.30;;;;;;5053927;28;19909;-74
2022/08/28 11:04:38;;;;;;;;;;;33.00;75.80;;;;;;5053941;28;19915;-74
2022/08/28 11:07:05;;;;;;;;;;;33.30;76.10;;;;;;5053844;28;19995;-85
2022/08/28 11:09:31;;;;;;;;;;;33.00;75.50;;;;;;5058600;28;19915;-75
2022/08/28 11:11:58;;;;;;;;;;;33.00;75.90;;;;;;5053966;28;19908;-74
2022/08/28 11:14:31;;;;;;;;;;;32.80;76.50;;;;;;5053449;28;20373;-84
2022/08/28 11:17:00;;;;;;;;;;;32.60;76.70;;;;;;5053636;28;19956;-85
2022/08/28 11:19:34;;;;;;;;;;;32.50;76.30;;;;;;5053588;28;19908;-83
2022/08/28 11:22:11;;;;;;;;;;;32.70;76.50;;;;;;5049137;28;19912;-75
2022/08/28 11:24:53;;;;;;;;;;;33.10;75.50;;;;;;5048300;28;19913;-75
2022/08/28 11:27:28;;;;;;;;;;;33.30;75.30;;;;;;5059428;28;19931;-83
2022/08/28 11:29:58;;;;;;;;;;;33.10;75.50;;;;;;5055092;28;20007;-75
2022/08/28 11:32:30;;;;;;;;;;;32.60;75.10;;;;;;5053715;28;19913;-84
2022/08/28 11:34:55;;;;;;;;;;;32.20;76.40;;;;;;5051837;28;19954;-75
2022/08/28 11:37:40;;;;;;;;;;;31.80;76.20;;;;;;5053356;28;19916;-75
2022/08/28 11:40:15;;;;;;;;;;;31.70;76.40;;;;;;5051981;28;19916;-74
2022/08/28 11:42:40;;;;;;;;;;;32.00;76.30;;;;;;5053339;28;19916;-84
2022/08/28 11:45:06;;;;;;;;;;;32.00;76.60;;;;;;5053113;28;19912;-85
2022/08/28 11:47:34;;;;;;;;;;;32.20;76.90;;;;;;5047310;28;20376;-84
2022/08/28 11:50:10;;;;;;;;;;;32.30;75.80;;;;;;5058245;28;19908;-74
2022/08/28 11:52:58;;;;;;;;;;;32.40;75.90;;;;;;5054450;28;20411;-75
2022/08/28 11:55:28;;;;;;;;;;;32.40;76.00;;;;;;5053146;28;19908;-75
2022/08/28 11:58:02;;;;;;;;;;;32.00;75.50;;;;;;5052931;28;20363;-75
2022/08/28 12:00:38;;;;;;;;;;;32.00;76.10;;;;;;5052680;28;19916;-74
2022/08/28 12:03:09;;;;;;;;;;;32.20;76.10;;;;;;5052957;28;19909;-74
2022/08/28 12:05:37;;;;;;;;;;;31.70;75.80;;;;;;5053033;28;19916;-84
2022/08/28 12:08:02;;;;;;;;;;;31.60;76.10;;;;;;5053404;28;19909;-85
2022/08/28 12:10:29;;;;;;;;;;;31.70;76.20;;;;;;5054949;28;19961;-75
2022/08/28 12:12:58;;;;;;;;;;;31.80;75.90;;;;;;5052288;28;19912;-74
2022/08/28 12:15:26;;;;;;;;;;;31.80;75.50;;;;;;5052603;28;19908;-75
2022/08/28 12:17:59;;;;;;;;;;;31.70;76.10;;;;;;5052886;28;19912;-75
2022/08/28 12:20:28;;;;;;;;;;;31.60;75.50;;;;;;5052967;28;19909;-75
2022/08/28 12:22:55;;;;;;;;;;;31.50;75.80;;;;;;5047708;28;19915;-84
2022/08/28 12:25:24;;;;;;;;;;;31.60;76.10;;;;;;5057170;28;19918;-75
2022/08/28 12:27:51;;;;;;;;;;;31.90;75.50;;;;;;5066116;28;19915;-84
2022/08/28 12:30:25;;;;;;;;;;;31.90;75.60;;;;;;5055243;28;19936;-83
2022/08/28 12:32:54;;;;;;;;;;;32.00;75.10;;;;;;5056906;28;19909;-74
2022/08/28 12:35:21;;;;;;;;;;;31.80;74.60;;;;;;5056808;28;19909;-75
2022/08/28 12:37:52;;;;;;;;;;;31.80;74.40;;;;;;5056808;28;20366;-85
2022/08/28 12:40:21;;;;;;;;;;;32.00;74.90;;;;;;5055447;28;19909;-83
2022/08/28 12:43:05;;;;;;;;;;;31.80;74.00;;;;;;5065346;28;19919;-75
2022/08/28 12:45:36;;;;;;;;;;;31.80;73.80;;;;;;5056646;28;19955;-83
2022/08/28 12:48:04;;;;;;;;;;;31.80;74.30;;;;;;5050686;28;19919;-84
2022/08/28 12:50:32;;;;;;;;;;;31.90;74.30;;;;;;5056574;28;19996;-84
2022/08/28 12:53:02;;;;;;;;;;;31.80;74.80;;;;;;5056552;28;20008;-75
2022/08/28 12:55:27;;;;;;;;;;;32.30;74.80;;;;;;5058107;28;19908;-84
2022/08/28 12:57:53;;;;;;;;;;;32.30;73.90;;;;;;5055950;28;19912;-84
2022/08/28 13:00:23;;;;;;;;;;;32.20;73.70;;;;;;5056110;28;19909;-84
2022/08/28 13:02:50;;;;;;;;;;;32.50;73.60;;;;;;5056212;28;19908;-74
2022/08/28 13:05:27;;;;;;;;;;;32.70;73.60;;;;;;5056223;28;19916;-75
2022/08/28 13:07:54;;;;;;;;;;;32.50;73.30;;;;;;5056265;28;20321;-84
2022/08/28 13:10:28;;;;;;;;;;;32.50;73.00;;;;;;5062223;28;19915;-85
2022/08/28 13:12:59;;;;;;;;;;;32.30;73.00;;;;;;5047614;28;19951;-85
2022/08/28 13:15:46;;;;;;;;;;;32.30;73.40;;;;;;5055096;28;19913;-85
2022/08/28 13:18:30;;;;;;;;;;;32.20;73.00;;;;;;5055991;28;20325;-74
2022/08/28 13:21:10;;;;;;;;;;;32.00;72.20;;;;;;5060638;28;19915;-75
2022/08/28 13:23:35;;;;;;;;;;;31.40;72.30;;;;;;5060160;28;19908;-85
2022/08/28 13:26:02;;;;;;;;;;;31.60;73.90;;;;;;5056159;28;20269;-74
2022/08/28 13:28:28;;;;;;;;;;;31.80;73.50;;;;;;5064798;28;19912;-85
2022/08/28 13:30:57;;;;;;;;;;;32.30;72.30;;;;;;5063895;28;20395;-74
2022/08/28 13:33:23;;;;;;;;;;;32.50;73.00;;;;;;5051270;28;19916;-85
2022/08/28 13:35:50;;;;;;;;;;;32.70;72.30;;;;;;5055614;28;19909;-85
2022/08/28 13:38:17;;;;;;;;;;;32.60;71.90;;;;;;5055542;28;20377;-86
2022/08/28 13:40:45;;;;;;;;;;;32.60;71.90;;;;;;5055707;28;19909;-85
2022/08/28 13:43:11;;;;;;;;;;;32.90;71.50;;;;;;5055582;28;19908;-85
2022/08/28 13:45:38;;;;;;;;;;;32.80;71.80;;;;;;5055141;28;19913;-75
2022/08/28 13:48:04;;;;;;;;;;;32.80;72.00;;;;;;5050102;28;19909;-85
2022/08/28 13:50:30;;;;;;;;;;;32.90;71.70;;;;;;5055456;28;20019;-84
2022/08/28 13:52:55;;;;;;;;;;;32.90;71.50;;;;;;5055299;28;19909;-85
2022/08/28 13:55:21;;;;;;;;;;;33.00;71.30;;;;;;5057573;28;19978;-85
2022/08/28 13:57:47;;;;;;;;;;;33.00;71.50;;;;;;5054776;28;19932;-85
2022/08/28 14:00:13;;;;;;;;;;;33.00;71.50;;;;;;5054823;28;19916;-86
2022/08/28 14:05:24;;;;;;;;;;;32.70;71.90;;;;;;5055140;28;19916;-84
2022/08/28 14:07:50;;;;;;;;;;;32.80;72.20;;;;;;5054359;28;19913;-85
2022/08/28 14:10:16;;;;;;;;;;;33.20;71.30;;;;;;5060249;28;19916;-74
2022/08/28 14:12:42;;;;;;;;;;;33.40;70.60;;;;;;5056679;28;19916;-84
2022/08/28 14:15:08;;;;;;;;;;;33.20;70.50;;;;;;5053739;28;19919;-85
2022/08/28 14:17:34;;;;;;;;;;;33.30;70.30;;;;;;5054706;28;19958;-74
2022/08/28 14:20:00;;;;;;;;;;;33.60;70.00;;;;;;5058093;28;19991;-85
2022/08/28 14:22:26;;;;;;;;;;;34.00;70.80;;;;;;5056405;28;19916;-75
2022/08/28 14:24:52;;;;;;;;;;;34.20;70.10;;;;;;5053448;28;19916;-75
2022/08/28 14:27:17;;;;;;;;;;;34.40;70.40;;;;;;5060304;28;20293;-85
2022/08/28 14:29:43;;;;;;;;;;;34.70;69.90;;;;;;5056424;28;19917;-75
2022/08/28 14:32:08;;;;;;;;;;;34.40;69.50;;;;;;5054771;28;20383;-75
2022/08/28 14:34:34;;;;;;;;;;;34.80;70.10;;;;;;5054582;28;20362;-75